Time;durP1;ratioP1;P1;durP2;ratioP2;P2;SDS_P1;SDS_P2;PMS_P1;PMS_P2;Temp;Humidity;BMP_temperature;BMP_pressure;BME280_temperature;BME280_humidity;BME280_pressure;Samples;Min_cycle;Max_cycle;Signal;HPM_P1;HPM_P2
2022/09/16 00:02:42;;;;;;;7.00;3.20;;;13.10;99.90;;;;;;5011130;28;20030;-51
2022/09/16 00:05:29;;;;;;;7.20;2.80;;;13.00;99.90;;;;;;5027651;28;20053;-52
2022/09/16 00:08:15;;;;;;;8.32;3.40;;;13.10;99.90;;;;;;5031779;28;20648;-52
2022/09/16 00:11:02;;;;;;;6.60;3.05;;;13.00;99.90;;;;;;5023063;28;20084;-51
2022/09/16 00:13:48;;;;;;;5.43;3.22;;;13.00;99.90;;;;;;5030282;28;20033;-50
2022/09/16 00:16:34;;;;;;;8.75;3.10;;;13.00;99.90;;;;;;5030943;28;20035;-53
2022/09/16 00:19:20;;;;;;;6.47;3.08;;;13.00;99.90;;;;;;5018179;28;20105;-50
2022/09/16 00:22:06;;;;;;;7.82;3.05;;;13.00;99.90;;;;;;5010767;28;20033;-52
2022/09/16 00:24:52;;;;;;;5.85;3.30;;;12.80;99.90;;;;;;5030068;28;20082;-55
2022/09/16 00:27:38;;;;;;;9.68;3.30;;;12.90;99.90;;;;;;5030755;28;20025;-51
2022/09/16 00:30:24;;;;;;;9.60;3.05;;;12.90;99.90;;;;;;5010893;28;20041;-52
2022/09/16 00:33:10;;;;;;;8.30;3.03;;;12.90;99.90;;;;;;5000879;28;20566;-52
2022/09/16 00:36:09;;;;;;;9.13;3.10;;;12.80;99.90;;;;;;5029372;28;20034;-54
2022/09/16 00:38:55;;;;;;;5.80;2.90;;;12.80;99.90;;;;;;5028903;28;20052;-55
2022/09/16 00:41:41;;;;;;;6.78;3.65;;;12.80;99.90;;;;;;5029358;28;20711;-50
2022/09/16 00:44:55;;;;;;;6.32;3.08;;;12.80;99.90;;;;;;5029489;28;20041;-50
2022/09/16 00:47:50;;;;;;;6.45;2.70;;;12.80;99.90;;;;;;5029938;28;20026;-54
2022/09/16 00:50:42;;;;;;;6.88;2.80;;;12.70;99.90;;;;;;5010734;28;20034;-53
2022/09/16 00:53:38;;;;;;;6.13;3.05;;;12.80;99.90;;;;;;5019077;28;20055;-56
2022/09/16 00:56:27;;;;;;;8.55;3.30;;;12.70;99.90;;;;;;5029465;28;20041;-53
2022/09/16 00:59:25;;;;;;;10.65;3.47;;;12.70;99.90;;;;;;5030284;28;20040;-54
2022/09/16 01:02:14;;;;;;;7.95;3.25;;;12.60;99.90;;;;;;5013298;28;20058;-52
2022/09/16 01:05:07;;;;;;;7.13;3.10;;;12.60;99.90;;;;;;5010083;28;20108;-53
2022/09/16 01:07:53;;;;;;;7.40;3.30;;;12.60;99.90;;;;;;5024341;28;20108;-56
2022/09/16 01:10:41;;;;;;;5.57;3.22;;;12.60;99.90;;;;;;5028660;28;20377;-52
2022/09/16 01:13:27;;;;;;;4.90;3.17;;;12.70;99.90;;;;;;5030676;28;20028;-54
2022/09/16 01:16:30;;;;;;;5.95;3.13;;;12.60;99.90;;;;;;5049568;28;20437;-51
2022/09/16 01:19:31;;;;;;;6.15;3.10;;;12.70;99.90;;;;;;5038635;28;20104;-51
2022/09/16 01:22:33;;;;;;;7.28;3.45;;;12.80;99.90;;;;;;5028808;28;20113;-50
2022/09/16 01:25:46;;;;;;;9.43;3.75;;;12.70;99.90;;;;;;5029372;28;20026;-55
2022/09/16 01:29:10;;;;;;;6.95;3.30;;;12.70;99.90;;;;;;5029574;28;20512;-50
2022/09/16 01:32:16;;;;;;;8.18;3.50;;;12.80;99.90;;;;;;5028756;28;20128;-52
2022/09/16 01:35:14;;;;;;;4.95;2.90;;;12.60;99.90;;;;;;5029057;28;20506;-52
2022/09/16 01:38:24;;;;;;;7.03;3.35;;;12.70;99.90;;;;;;5029695;28;20041;-51
2022/09/16 01:41:39;;;;;;;5.93;3.20;;;12.70;99.90;;;;;;5028685;28;20028;-52
2022/09/16 01:44:28;;;;;;;8.50;3.20;;;12.60;99.90;;;;;;5029021;28;20100;-55
2022/09/16 01:47:48;;;;;;;4.97;3.13;;;12.60;99.90;;;;;;5029406;28;20390;-53
2022/09/16 01:50:49;;;;;;;5.68;2.60;;;12.50;99.90;;;;;;5030780;28;20060;-57
2022/09/16 01:53:42;;;;;;;5.68;3.17;;;12.40;99.90;;;;;;5030658;28;20024;-51
2022/09/16 01:56:37;;;;;;;5.93;2.80;;;12.40;99.90;;;;;;5022883;28;20517;-54
2022/09/16 01:59:44;;;;;;;5.28;2.70;;;12.40;99.90;;;;;;5033125;28;20458;-51
2022/09/16 02:02:54;;;;;;;7.80;3.17;;;12.40;99.90;;;;;;5032558;28;20033;-56
2022/09/16 02:06:03;;;;;;;6.80;2.70;;;12.30;99.90;;;;;;5032678;28;20119;-53
2022/09/16 02:08:53;;;;;;;5.00;3.25;;;12.30;99.90;;;;;;5033124;28;20552;-54
2022/09/16 02:11:41;;;;;;;3.40;2.50;;;12.40;99.90;;;;;;5025440;28;20028;-55
2022/09/16 02:14:30;;;;;;;5.75;2.97;;;12.40;99.90;;;;;;5032601;28;20563;-52
2022/09/16 02:17:21;;;;;;;6.85;2.70;;;12.40;99.90;;;;;;5031260;28;20064;-56
2022/09/16 02:20:13;;;;;;;9.05;3.67;;;12.40;99.90;;;;;;5030656;28;20029;-53
2022/09/16 02:23:05;;;;;;;4.72;2.70;;;12.30;99.90;;;;;;5032884;28;20370;-55
2022/09/16 02:25:54;;;;;;;6.30;2.90;;;12.40;99.90;;;;;;5032179;28;20029;-53
2022/09/16 02:28:42;;;;;;;6.80;3.15;;;12.40;99.90;;;;;;5018358;28;20037;-52
2022/09/16 02:31:33;;;;;;;6.63;3.50;;;12.30;99.90;;;;;;5032069;28;20446;-50
2022/09/16 02:34:26;;;;;;;5.60;2.80;;;12.30;99.90;;;;;;5031377;28;20041;-53
2022/09/16 02:37:25;;;;;;;6.25;3.42;;;12.30;99.90;;;;;;5019450;28;20064;-54
2022/09/16 02:40:17;;;;;;;6.85;3.50;;;12.40;99.90;;;;;;5013161;28;20666;-50
2022/09/16 02:43:03;;;;;;;3.53;2.45;;;12.30;99.90;;;;;;5022255;28;20084;-50
2022/09/16 02:45:59;;;;;;;6.13;2.47;;;12.20;99.90;;;;;;5031284;28;20117;-49
2022/09/16 02:48:54;;;;;;;9.27;3.10;;;12.20;99.90;;;;;;5030908;28;20026;-51
2022/09/16 02:51:46;;;;;;;7.43;3.03;;;12.30;99.90;;;;;;5031051;28;20409;-53
2022/09/16 02:55:04;;;;;;;4.63;2.95;;;12.20;99.90;;;;;;5031269;28;20033;-52
2022/09/16 02:57:50;;;;;;;9.43;3.10;;;12.30;99.90;;;;;;5032410;28;20084;-56
2022/09/16 03:00:42;;;;;;;8.75;2.97;;;12.40;99.90;;;;;;5030596;28;20537;-55
2022/09/16 03:03:28;;;;;;;4.15;2.58;;;12.30;99.90;;;;;;5017549;28;20065;-56
2022/09/16 03:06:16;;;;;;;5.13;2.63;;;12.20;99.90;;;;;;5030539;28;20045;-55
2022/09/16 03:09:06;;;;;;;12.00;3.22;;;12.30;99.90;;;;;;5026822;28;20521;-56
2022/09/16 03:12:06;;;;;;;6.93;2.83;;;12.30;99.90;;;;;;5032002;28;20029;-54
2022/09/16 03:15:13;;;;;;;8.57;2.95;;;12.20;99.90;;;;;;5031271;28;20033;-53
2022/09/16 03:18:32;;;;;;;4.20;2.58;;;12.20;99.90;;;;;;5031868;28;20029;-57
2022/09/16 03:21:28;;;;;;;7.20;3.15;;;12.10;99.90;;;;;;5029961;28;20421;-52
2022/09/16 03:24:23;;;;;;;5.43;3.15;;;12.10;99.90;;;;;;5030893;28;20116;-54
2022/09/16 03:27:31;;;;;;;8.15;3.40;;;12.20;99.90;;;;;;5032294;28;20179;-55
2022/09/16 03:30:17;;;;;;;5.10;2.75;;;12.10;99.90;;;;;;5018145;28;20034;-54
2022/09/16 03:33:24;;;;;;;7.72;3.00;;;12.20;99.90;;;;;;5030003;28;20552;-51
2022/09/16 03:36:15;;;;;;;8.50;3.45;;;12.20;99.90;;;;;;5030270;28;20111;-57
2022/09/16 03:39:02;;;;;;;4.95;2.85;;;12.20;99.90;;;;;;5030383;28;20687;-52
2022/09/16 03:41:49;;;;;;;8.55;3.33;;;12.20;99.90;;;;;;5030328;28;20029;-51
2022/09/16 03:44:39;;;;;;;6.40;2.88;;;12.20;99.90;;;;;;5031726;28;20048;-58
2022/09/16 03:47:25;;;;;;;11.00;3.40;;;12.00;99.90;;;;;;5031365;28;20116;-58
2022/09/16 03:50:11;;;;;;;4.50;2.95;;;12.10;99.90;;;;;;5031219;28;20386;-57
2022/09/16 03:52:56;;;;;;;8.02;2.85;;;12.10;99.90;;;;;;5030016;28;20589;-58
2022/09/16 03:55:42;;;;;;;9.40;2.97;;;12.10;99.90;;;;;;5031228;28;20059;-57
2022/09/16 03:58:28;;;;;;;6.85;3.17;;;12.20;99.90;;;;;;5031234;28;20120;-56
2022/09/16 04:01:14;;;;;;;6.88;3.20;;;11.90;99.90;;;;;;5011052;28;20034;-56
2022/09/16 04:04:01;;;;;;;6.30;2.90;;;11.90;99.90;;;;;;5027006;28;20474;-58
2022/09/16 04:06:46;;;;;;;7.05;3.35;;;11.90;99.90;;;;;;5016583;28;20095;-52
2022/09/16 04:09:32;;;;;;;4.40;2.80;;;11.80;99.90;;;;;;5029627;28;20025;-57
2022/09/16 04:12:18;;;;;;;6.68;2.95;;;11.90;99.90;;;;;;5029376;28;20022;-58
2022/09/16 04:15:05;;;;;;;6.35;3.25;;;11.90;99.90;;;;;;5029616;28;20087;-59
2022/09/16 04:17:51;;;;;;;4.40;3.10;;;11.80;99.90;;;;;;5029637;28;20039;-57
2022/09/16 04:20:37;;;;;;;7.47;3.50;;;11.80;99.90;;;;;;5011493;28;20113;-58
2022/09/16 04:23:25;;;;;;;6.45;2.95;;;11.70;99.90;;;;;;5031465;28;20109;-59
2022/09/16 04:26:11;;;;;;;6.80;3.72;;;11.70;99.90;;;;;;5029277;28;20036;-58
2022/09/16 04:28:57;;;;;;;5.05;2.88;;;11.80;99.90;;;;;;5029883;28;20036;-57
2022/09/16 04:31:43;;;;;;;6.57;3.17;;;11.80;99.90;;;;;;5015788;28;20021;-57
2022/09/16 04:34:31;;;;;;;7.32;3.00;;;11.80;99.90;;;;;;5030290;28;20405;-58
2022/09/16 04:37:17;;;;;;;7.28;3.28;;;11.90;99.90;;;;;;5029018;28;20045;-58
2022/09/16 04:40:03;;;;;;;8.98;3.80;;;12.00;99.90;;;;;;5030501;28;20030;-57
2022/09/16 04:42:50;;;;;;;6.07;3.22;;;12.00;99.90;;;;;;5030423;28;20116;-55
2022/09/16 04:45:36;;;;;;;6.45;3.63;;;11.90;99.90;;;;;;5028345;28;20505;-56
2022/09/16 04:48:24;;;;;;;11.48;3.67;;;11.90;99.90;;;;;;5027970;28;20033;-57
2022/09/16 04:51:11;;;;;;;10.73;3.83;;;11.80;99.90;;;;;;5029201;28;20029;-57
2022/09/16 04:53:58;;;;;;;8.15;3.72;;;11.80;99.90;;;;;;5029650;28;20034;-57
2022/09/16 04:56:44;;;;;;;7.57;4.05;;;11.90;99.90;;;;;;5017276;28;20235;-58
2022/09/16 04:59:30;;;;;;;6.38;3.20;;;11.90;99.90;;;;;;5029694;28;20064;-55
2022/09/16 05:02:15;;;;;;;10.52;4.13;;;12.00;99.90;;;;;;5029649;28;20033;-56
2022/09/16 05:05:01;;;;;;;9.30;3.58;;;12.00;99.90;;;;;;5029648;28;20099;-55
2022/09/16 05:07:47;;;;;;;6.25;3.15;;;12.00;99.90;;;;;;5012253;28;20498;-55
2022/09/16 05:10:34;;;;;;;6.20;3.42;;;12.00;99.90;;;;;;5028168;28;20502;-55
2022/09/16 05:13:22;;;;;;;6.00;3.53;;;12.00;99.90;;;;;;5035952;28;20029;-56
2022/09/16 05:16:13;;;;;;;7.13;3.33;;;11.90;99.90;;;;;;5036060;28;20112;-55
2022/09/16 05:19:03;;;;;;;4.85;3.10;;;11.80;99.90;;;;;;5037133;28;20063;-57
2022/09/16 05:21:49;;;;;;;7.10;3.50;;;11.80;99.90;;;;;;5025567;28;20033;-58
2022/09/16 05:24:35;;;;;;;7.82;3.30;;;11.90;99.90;;;;;;5006476;28;20044;-58
2022/09/16 05:27:21;;;;;;;6.95;3.28;;;12.10;99.90;;;;;;5030219;28;20494;-58
2022/09/16 05:30:16;;;;;;;7.28;3.00;;;12.00;99.90;;;;;;5034898;28;20041;-55
2022/09/16 05:33:03;;;;;;;14.10;3.80;;;12.10;99.90;;;;;;5030580;28;20033;-57
2022/09/16 05:35:49;;;;;;;8.93;4.53;;;12.10;99.90;;;;;;5034653;28;20401;-57
2022/09/16 05:38:35;;;;;;;9.98;4.20;;;12.20;99.90;;;;;;5018561;28;20043;-55
2022/09/16 05:41:21;;;;;;;7.75;3.90;;;12.20;99.90;;;;;;5030907;28;20108;-56
2022/09/16 05:44:07;;;;;;;8.23;3.75;;;12.10;99.90;;;;;;5032926;28;20041;-58
2022/09/16 05:46:54;;;;;;;8.13;3.90;;;12.10;99.90;;;;;;5030696;28;20029;-54
2022/09/16 05:49:39;;;;;;;6.80;4.00;;;12.10;99.90;;;;;;5029603;28;20108;-52
2022/09/16 05:52:26;;;;;;;10.55;3.83;;;12.20;99.90;;;;;;5031879;28;20100;-56
2022/09/16 05:55:12;;;;;;;9.48;3.50;;;12.10;99.90;;;;;;5032637;28;20026;-56
2022/09/16 05:57:58;;;;;;;6.38;3.53;;;12.10;99.90;;;;;;5031742;28;20508;-56
2022/09/16 06:00:45;;;;;;;5.78;3.10;;;12.10;99.90;;;;;;5021375;28;20029;-57
2022/09/16 06:03:33;;;;;;;6.15;3.00;;;12.40;99.90;;;;;;5027870;28;20041;-55
2022/09/16 06:06:54;;;;;;;6.57;3.03;;;12.50;99.90;;;;;;5031631;28;20061;-58
2022/09/16 06:09:40;;;;;;;8.30;2.75;;;12.40;99.90;;;;;;5028242;28;20104;-55
2022/09/16 06:12:29;;;;;;;8.15;2.83;;;12.60;99.90;;;;;;5023137;28;20080;-58
2022/09/16 06:15:15;;;;;;;8.45;2.63;;;12.80;99.90;;;;;;5027125;28;20029;-56
2022/09/16 06:18:01;;;;;;;4.97;2.40;;;12.90;99.90;;;;;;5031045;28;20113;-55
2022/09/16 06:20:48;;;;;;;6.32;2.92;;;12.90;99.90;;;;;;5033690;28;20117;-56
2022/09/16 06:23:35;;;;;;;4.78;3.05;;;12.90;99.90;;;;;;5033928;28;20033;-54
2022/09/16 06:26:24;;;;;;;4.68;2.72;;;13.00;99.90;;;;;;5015174;28;20053;-57
2022/09/16 06:29:10;;;;;;;8.68;3.00;;;13.00;99.90;;;;;;5031530;28;20045;-58
2022/09/16 06:31:56;;;;;;;6.22;3.08;;;13.00;99.90;;;;;;5032132;28;20053;-54
2022/09/16 06:34:42;;;;;;;5.85;2.70;;;13.20;99.90;;;;;;5029169;28;20037;-54
2022/09/16 06:37:28;;;;;;;6.88;2.70;;;13.20;99.90;;;;;;5037949;28;20048;-54
2022/09/16 06:40:15;;;;;;;4.05;2.67;;;13.30;99.90;;;;;;5023775;28;20037;-56
2022/09/16 06:43:01;;;;;;;4.28;2.25;;;13.30;99.90;;;;;;5020689;28;20123;-54
2022/09/16 06:45:47;;;;;;;5.72;2.88;;;13.20;99.90;;;;;;5011833;28;20030;-56
2022/09/16 06:48:33;;;;;;;4.35;2.13;;;13.20;99.90;;;;;;5015807;28;20018;-54
2022/09/16 06:51:27;;;;;;;4.60;2.60;;;13.10;99.90;;;;;;5031610;28;20026;-55
2022/09/16 06:54:13;;;;;;;6.53;2.63;;;13.10;99.90;;;;;;5031559;28;20096;-54
2022/09/16 06:56:59;;;;;;;6.05;2.63;;;13.20;99.90;;;;;;5033411;28;20108;-56
2022/09/16 06:59:45;;;;;;;8.23;2.53;;;13.20;99.90;;;;;;5035422;28;20683;-54
2022/09/16 07:02:31;;;;;;;5.25;2.70;;;13.20;99.90;;;;;;5032729;28;20041;-57
2022/09/16 07:05:17;;;;;;;5.72;2.55;;;13.40;99.90;;;;;;5034392;28;20037;-56
2022/09/16 07:08:03;;;;;;;8.30;2.80;;;13.50;99.90;;;;;;5030096;28;20099;-55
2022/09/16 07:10:59;;;;;;;16.40;3.63;;;13.40;99.90;;;;;;5033422;28;20025;-53
2022/09/16 07:13:46;;;;;;;7.68;3.17;;;13.50;99.90;;;;;;5033415;28;20581;-52
2022/09/16 07:16:32;;;;;;;7.95;2.65;;;13.30;99.90;;;;;;5035934;28;20453;-54
2022/09/16 07:19:18;;;;;;;5.00;2.70;;;13.30;99.90;;;;;;5033764;28;20108;-53
2022/09/16 07:22:04;;;;;;;6.95;2.92;;;13.30;99.90;;;;;;5022048;28;20029;-53
2022/09/16 07:24:51;;;;;;;5.43;3.08;;;13.40;99.90;;;;;;5022897;28;20034;-53
2022/09/16 07:27:36;;;;;;;7.03;3.40;;;13.30;99.90;;;;;;5029020;28;20034;-53
2022/09/16 07:30:22;;;;;;;7.32;3.10;;;13.30;99.90;;;;;;5022776;28;20022;-56
2022/09/16 07:33:08;;;;;;;6.70;2.78;;;13.30;99.90;;;;;;5024760;28;20029;-56
2022/09/16 07:36:00;;;;;;;6.13;3.30;;;13.60;99.90;;;;;;5023151;28;20037;-57
2022/09/16 07:38:47;;;;;;;4.93;2.67;;;13.70;99.90;;;;;;5026010;28;20053;-56
2022/09/16 07:41:36;;;;;;;6.95;3.40;;;13.80;99.90;;;;;;5023634;28;20033;-56
2022/09/16 07:44:23;;;;;;;5.75;2.85;;;13.90;99.90;;;;;;5026636;28;20765;-54
2022/09/16 07:47:09;;;;;;;5.45;3.38;;;14.00;99.90;;;;;;5024320;28;20030;-56
2022/09/16 07:49:55;;;;;;;6.88;3.00;;;13.90;99.90;;;;;;5034601;28;20052;-57
2022/09/16 07:52:41;;;;;;;7.32;3.72;;;14.00;99.90;;;;;;5019855;28;20089;-56
2022/09/16 07:55:27;;;;;;;4.18;2.97;;;14.00;99.90;;;;;;5005361;28;20053;-57
2022/09/16 07:58:13;;;;;;;7.82;3.30;;;14.10;99.90;;;;;;5014070;28;20034;-53
2022/09/16 08:01:00;;;;;;;6.63;3.90;;;14.20;99.90;;;;;;5025347;28;20037;-53
2022/09/16 08:03:47;;;;;;;3.65;3.00;;;14.40;99.90;;;;;;5030941;28;20554;-52
2022/09/16 08:06:37;;;;;;;6.45;3.33;;;14.40;99.90;;;;;;5030067;28;20037;-53
2022/09/16 08:09:23;;;;;;;5.47;3.20;;;14.30;99.90;;;;;;5029808;28;20025;-53
2022/09/16 08:12:09;;;;;;;7.00;2.95;;;14.40;99.90;;;;;;5029373;28;20032;-52
2022/09/16 08:14:55;;;;;;;6.30;3.13;;;14.40;99.90;;;;;;5030607;28;20461;-51
2022/09/16 08:17:41;;;;;;;8.13;4.20;;;14.40;99.90;;;;;;5031090;28;20076;-53
2022/09/16 08:20:27;;;;;;;8.70;3.45;;;14.50;99.90;;;;;;4998248;28;20037;-57
2022/09/16 08:23:13;;;;;;;6.47;3.33;;;14.60;99.90;;;;;;5019899;28;20465;-55
2022/09/16 08:26:00;;;;;;;7.97;3.33;;;14.50;99.90;;;;;;5030941;28;20401;-53
2022/09/16 08:28:48;;;;;;;5.38;3.10;;;14.40;99.90;;;;;;5030514;28;20029;-49
2022/09/16 08:31:34;;;;;;;4.88;3.50;;;14.30;99.90;;;;;;5015969;28;20481;-53
2022/09/16 08:34:20;;;;;;;7.07;3.30;;;14.30;99.90;;;;;;5030535;28;20025;-55
2022/09/16 08:37:06;;;;;;;9.48;3.10;;;14.40;99.90;;;;;;5030106;28;20061;-53
2022/09/16 08:39:52;;;;;;;5.60;2.90;;;14.50;99.90;;;;;;5030129;28;20034;-52
2022/09/16 08:43:14;;;;;;;6.15;3.00;;;14.60;99.90;;;;;;5032123;28;20034;-49
2022/09/16 08:46:20;;;;;;;6.15;3.08;;;14.40;99.90;;;;;;5031158;28;20029;-52
2022/09/16 08:49:34;;;;;;;6.55;2.50;;;14.40;99.90;;;;;;5031004;28;20561;-56
2022/09/16 08:52:28;;;;;;;5.78;2.20;;;14.20;99.90;;;;;;5031225;28;20053;-56
2022/09/16 08:55:33;;;;;;;3.90;2.30;;;14.10;99.90;;;;;;5031155;28;20046;-53
2022/09/16 08:58:25;;;;;;;5.47;3.05;;;13.90;99.90;;;;;;5029372;28;20559;-55
2022/09/16 09:01:25;;;;;;;3.05;2.60;;;13.80;99.90;;;;;;5030020;28;20116;-51
2022/09/16 09:04:12;;;;;;;2.83;2.63;;;13.80;99.90;;;;;;5034314;28;20028;-51
2022/09/16 09:07:16;;;;;;;3.53;2.65;;;14.00;99.90;;;;;;5021169;28;20033;-55
2022/09/16 09:10:29;;;;;;;5.03;2.50;;;14.10;99.90;;;;;;5034816;28;20022;-53
2022/09/16 09:13:26;;;;;;;2.78;2.53;;;14.20;99.90;;;;;;5027788;28;20028;-54
2022/09/16 09:16:22;;;;;;;6.85;2.70;;;14.20;99.90;;;;;;5034315;28;20525;-55
2022/09/16 09:19:30;;;;;;;4.60;2.78;;;14.30;99.90;;;;;;5034611;28;20103;-53
2022/09/16 09:22:27;;;;;;;3.85;2.88;;;14.20;99.90;;;;;;5033654;28;20031;-53
2022/09/16 09:25:21;;;;;;;7.75;3.13;;;14.20;99.90;;;;;;5014834;28;20104;-53
2022/09/16 09:28:16;;;;;;;3.72;2.75;;;14.10;99.90;;;;;;5021119;28;20064;-54
2022/09/16 09:31:24;;;;;;;3.72;2.70;;;14.20;99.90;;;;;;5033077;28;20053;-57
2022/09/16 09:34:30;;;;;;;4.78;2.50;;;14.30;99.90;;;;;;5034926;28;20053;-52
2022/09/16 09:37:28;;;;;;;;;;;14.50;99.90;;;;;;5022177;28;20028;-49
2022/09/16 09:40:38;;;;;;;5.10;3.20;;;14.70;99.90;;;;;;5000552;28;19905;-52
2022/09/16 09:43:50;;;;;;;3.30;2.53;;;14.80;99.90;;;;;;5014039;28;20037;-50
2022/09/16 09:46:41;;;;;;;7.25;2.85;;;14.90;99.90;;;;;;5029396;28;20033;-53
2022/09/16 09:49:37;;;;;;;3.85;2.83;;;14.90;99.90;;;;;;5033621;28;20018;-54
2022/09/16 09:52:37;;;;;;;2.67;2.40;;;15.00;99.90;;;;;;5033842;28;20018;-54
2022/09/16 09:55:26;;;;;;;2.85;2.20;;;15.00;99.60;;;;;;5015658;28;20084;-52
2022/09/16 09:58:33;;;;;;;2.30;2.10;;;15.10;99.10;;;;;;5029850;28;20029;-50
2022/09/16 10:01:20;;;;;;;2.65;2.10;;;15.20;99.10;;;;;;5028874;28;20490;-52
2022/09/16 10:04:14;;;;;;;2.80;2.17;;;15.10;98.40;;;;;;5034385;28;20081;-56
2022/09/16 10:07:00;;;;;;;3.65;2.25;;;15.20;98.00;;;;;;5033859;28;20482;-53
2022/09/16 10:09:56;;;;;;;3.08;2.10;;;15.30;98.00;;;;;;5033426;28;20030;-56
2022/09/16 10:12:42;;;;;;;2.83;2.30;;;15.50;97.80;;;;;;5013395;28;20026;-55
2022/09/16 10:15:30;;;;;;;4.50;2.30;;;15.50;97.50;;;;;;5021559;28;20041;-58
2022/09/16 10:18:28;;;;;;;5.07;2.25;;;15.60;97.10;;;;;;5033397;28;20033;-55
2022/09/16 10:21:16;;;;;;;3.50;2.15;;;15.60;97.00;;;;;;5037440;28;20425;-50
2022/09/16 10:24:02;;;;;;;4.95;2.95;;;15.40;97.60;;;;;;5038383;28;20041;-47
2022/09/16 10:26:48;;;;;;;3.38;2.15;;;15.60;97.40;;;;;;5036923;28;20037;-49
2022/09/16 10:29:34;;;;;;;4.18;2.17;;;15.80;97.00;;;;;;5038516;28;20022;-56
2022/09/16 10:32:20;;;;;;;4.13;2.88;;;16.10;96.80;;;;;;5037030;28;20021;-51
2022/09/16 10:35:18;;;;;;;2.92;2.00;;;15.90;96.30;;;;;;5039620;28;20108;-53
2022/09/16 10:38:17;;;;;;;4.00;1.90;;;16.00;96.10;;;;;;5038439;28;20673;-54
2022/09/16 10:41:24;;;;;;;3.40;2.15;;;16.30;95.50;;;;;;5036148;28;20081;-51
2022/09/16 10:44:19;;;;;;;3.70;2.47;;;16.40;94.90;;;;;;5034671;28;20026;-57
2022/09/16 10:47:26;;;;;;;2.22;1.73;;;16.40;94.50;;;;;;5032583;28;20022;-56
2022/09/16 10:50:17;;;;;;;5.30;2.30;;;16.60;94.10;;;;;;5030611;28;20022;-53
2022/09/16 10:53:21;;;;;;;4.03;2.65;;;16.10;94.70;;;;;;5025873;28;20033;-54
2022/09/16 10:56:17;;;;;;;4.60;2.10;;;16.20;94.30;;;;;;5032441;28;20040;-55
2022/09/16 10:59:12;;;;;;;3.63;2.00;;;16.20;94.50;;;;;;5031952;28;20494;-51
2022/09/16 11:02:10;;;;;;;6.30;2.45;;;16.40;95.60;;;;;;5012403;28;20060;-54
2022/09/16 11:05:26;;;;;;;7.20;2.70;;;16.60;95.30;;;;;;5031355;28;20079;-56
2022/09/16 11:08:39;;;;;;;5.57;2.25;;;16.70;94.80;;;;;;5032115;28;20022;-50
2022/09/16 11:11:58;;;;;;;6.05;2.30;;;16.50;94.50;;;;;;5032024;28;20037;-55
2022/09/16 11:15:08;;;;;;;5.80;2.67;;;16.60;94.00;;;;;;5021343;28;20030;-49
2022/09/16 11:18:01;;;;;;;3.63;2.05;;;16.60;93.50;;;;;;5032611;28;20037;-54
2022/09/16 11:21:14;;;;;;;5.13;2.03;;;16.60;92.70;;;;;;5030571;28;20504;-56
2022/09/16 11:24:26;;;;;;;3.17;2.00;;;16.80;92.50;;;;;;5018715;28;20106;-52
2022/09/16 11:27:24;;;;;;;6.47;2.10;;;16.80;92.60;;;;;;5009348;28;20044;-52
2022/09/16 11:30:18;;;;;;;4.63;1.60;;;16.30;93.30;;;;;;5031480;28;20026;-52
2022/09/16 11:33:09;;;;;;;6.30;2.55;;;16.10;94.20;;;;;;5031793;28;20049;-52
2022/09/16 11:36:14;;;;;;;3.50;2.00;;;16.00;95.00;;;;;;5028774;28;20370;-55
2022/09/16 11:39:33;;;;;;;2.23;1.83;;;15.50;95.70;;;;;;5022911;28;20037;-50
2022/09/16 11:42:33;;;;;;;2.15;1.50;;;15.20;95.40;;;;;;5014141;28;20025;-56
2022/09/16 11:45:45;;;;;;;1.55;1.40;;;15.00;95.30;;;;;;5014502;28;20045;-57
2022/09/16 11:48:57;;;;;;;1.17;1.10;;;14.60;95.70;;;;;;5021627;28;20060;-59
2022/09/16 11:52:07;;;;;;;4.75;1.40;;;14.80;96.10;;;;;;5011695;28;20048;-56
2022/09/16 11:55:14;;;;;;;2.03;1.48;;;14.80;96.50;;;;;;5011382;28;20524;-60
2022/09/16 11:58:10;;;;;;;1.35;1.20;;;15.00;95.80;;;;;;5030593;28;20061;-55
2022/09/16 12:01:01;;;;;;;2.45;1.60;;;15.10;95.20;;;;;;5030835;28;20087;-56
2022/09/16 12:03:54;;;;;;;2.72;1.50;;;15.40;94.90;;;;;;5028386;28;20021;-59
2022/09/16 12:06:57;;;;;;;3.20;1.50;;;15.60;95.00;;;;;;5031989;28;20038;-56
2022/09/16 12:09:52;;;;;;;1.92;1.60;;;15.70;94.50;;;;;;5016299;28;20018;-58
2022/09/16 12:12:44;;;;;;;3.53;1.40;;;15.90;93.70;;;;;;5029303;28;20405;-55
2022/09/16 12:15:40;;;;;;;4.65;1.70;;;15.90;93.70;;;;;;5030740;28;20429;-54
2022/09/16 12:18:41;;;;;;;2.72;1.48;;;15.90;93.50;;;;;;5011789;28;20041;-52
2022/09/16 12:21:36;;;;;;;1.98;1.27;;;16.00;93.30;;;;;;5014451;28;20076;-52
2022/09/16 12:24:39;;;;;;;2.47;1.67;;;16.10;93.30;;;;;;5029829;28;20053;-52
2022/09/16 12:27:56;;;;;;;3.95;1.67;;;16.40;93.50;;;;;;5020399;28;20040;-53
2022/09/16 12:30:46;;;;;;;2.97;1.80;;;16.80;93.20;;;;;;5010643;28;20064;-52
2022/09/16 12:33:38;;;;;;;3.67;1.90;;;17.00;93.50;;;;;;5027164;28;20444;-57
2022/09/16 12:36:30;;;;;;;2.92;1.98;;;17.30;93.20;;;;;;5011183;28;20405;-53
2022/09/16 12:39:16;;;;;;;5.32;2.30;;;17.40;93.40;;;;;;5026520;28;20124;-56
2022/09/16 12:42:39;;;;;;;3.45;2.05;;;17.20;93.30;;;;;;5026434;28;20025;-54
2022/09/16 12:45:53;;;;;;;3.47;2.03;;;17.40;93.30;;;;;;4983018;28;20077;-55
2022/09/16 12:48:58;;;;;;;11.95;2.63;;;17.60;93.30;;;;;;4998290;28;20038;-48
2022/09/16 12:51:44;;;;;;;2.17;1.75;;;17.80;93.10;;;;;;5018856;28;20033;-51
2022/09/16 12:55:13;;;;;;;6.10;2.88;;;18.00;92.30;;;;;;5030084;28;20490;-53
2022/09/16 12:58:33;;;;;;;4.60;2.30;;;18.00;91.70;;;;;;5012198;28;20116;-54
2022/09/16 13:01:24;;;;;;;4.78;1.90;;;18.00;91.60;;;;;;5025359;28;20040;-52
2022/09/16 13:04:20;;;;;;;5.28;2.10;;;18.10;91.40;;;;;;5027648;28;20033;-54
2022/09/16 13:07:06;;;;;;;5.78;2.20;;;17.80;91.20;;;;;;5010521;28;20526;-50
2022/09/16 13:10:03;;;;;;;6.63;2.40;;;18.00;90.90;;;;;;5018435;28;20678;-54
2022/09/16 13:12:54;;;;;;;6.20;2.28;;;18.20;90.50;;;;;;5010493;28;20022;-50
2022/09/16 13:15:41;;;;;;;3.55;2.03;;;18.40;90.00;;;;;;5023874;28;20370;-52
2022/09/16 13:18:44;;;;;;;5.35;2.10;;;18.30;90.00;;;;;;5029343;28;20029;-52
2022/09/16 13:21:43;;;;;;;7.03;2.30;;;18.20;90.20;;;;;;5009417;28;20026;-52
2022/09/16 13:24:41;;;;;;;8.15;3.00;;;18.20;90.40;;;;;;5014191;28;20040;-51
2022/09/16 13:27:34;;;;;;;6.40;2.08;;;18.40;90.30;;;;;;5029846;28;20076;-51
2022/09/16 13:30:30;;;;;;;3.83;2.05;;;18.50;89.90;;;;;;5029630;28;20026;-56
2022/09/16 13:33:26;;;;;;;3.10;2.13;;;18.60;90.20;;;;;;5030553;28;20022;-55
2022/09/16 13:36:19;;;;;;;8.00;2.53;;;18.30;90.70;;;;;;5030496;28;20113;-56
2022/09/16 13:39:12;;;;;;;4.65;1.92;;;18.10;90.70;;;;;;5024505;28;20040;-52
2022/09/16 13:42:16;;;;;;;5.82;2.20;;;17.90;90.50;;;;;;5010081;28;20628;-57
2022/09/16 13:45:02;;;;;;;6.95;2.08;;;17.80;90.60;;;;;;5025546;28;20029;-57
2022/09/16 13:47:48;;;;;;;7.68;3.08;;;18.00;88.10;;;;;;5029892;28;20025;-59
2022/09/16 13:50:36;;;;;;;4.47;2.10;;;17.90;85.20;;;;;;5012047;28;20032;-56
2022/09/16 13:53:32;;;;;;;3.55;1.95;;;17.80;84.70;;;;;;5013033;28;20109;-55
2022/09/16 13:56:41;;;;;;;3.33;2.10;;;17.90;84.10;;;;;;5019942;28;20026;-57
2022/09/16 13:59:33;;;;;;;7.55;2.10;;;18.20;83.30;;;;;;5033354;28;20029;-54
2022/09/16 14:02:40;;;;;;;3.00;1.90;;;18.30;82.60;;;;;;5023747;28;20026;-61
2022/09/16 14:05:53;;;;;;;3.97;1.98;;;18.50;83.30;;;;;;5032639;28;20056;-55
2022/09/16 14:09:17;;;;;;;8.23;2.60;;;18.50;83.30;;;;;;5033204;28;20025;-55
2022/09/16 14:12:37;;;;;;;5.45;2.17;;;18.40;83.10;;;;;;5031589;28;20049;-55
2022/09/16 14:15:25;;;;;;;3.83;2.17;;;18.60;82.90;;;;;;5033162;28;20072;-59
2022/09/16 14:18:16;;;;;;;6.18;2.30;;;18.90;82.00;;;;;;5053043;28;20040;-56
2022/09/16 14:21:05;;;;;;;4.20;2.08;;;18.80;82.80;;;;;;5052796;28;20025;-55
2022/09/16 14:23:51;;;;;;;3.92;2.13;;;19.10;82.40;;;;;;5039615;28;20042;-52
2022/09/16 14:26:48;;;;;;;4.05;2.53;;;19.00;81.40;;;;;;5039263;28;20021;-50
2022/09/16 14:29:34;;;;;;;7.07;2.20;;;18.70;81.80;;;;;;5052596;28;20026;-59
2022/09/16 14:32:22;;;;;;;5.45;2.20;;;19.00;82.30;;;;;;5035014;28;20033;-59
2022/09/16 14:35:11;;;;;;;6.45;2.55;;;19.10;82.00;;;;;;5032669;28;20144;-53
2022/09/16 14:38:02;;;;;;;6.63;2.65;;;19.00;82.50;;;;;;5019136;28;20045;-52
2022/09/16 14:40:48;;;;;;;7.10;2.65;;;18.80;83.10;;;;;;5031806;28;20029;-53
2022/09/16 14:43:37;;;;;;;8.02;2.63;;;18.90;83.80;;;;;;5032979;28;20061;-54
2022/09/16 14:46:24;;;;;;;5.72;2.28;;;18.80;84.00;;;;;;5032348;28;20040;-61
2022/09/16 14:49:12;;;;;;;6.47;2.83;;;18.60;83.90;;;;;;4986102;28;20029;-57
2022/09/16 14:52:03;;;;;;;5.60;2.78;;;18.80;82.50;;;;;;5030467;28;20355;-57
2022/09/16 14:54:50;;;;;;;3.80;2.00;;;18.80;80.50;;;;;;5031413;28;20060;-54
2022/09/16 14:57:36;;;;;;;3.47;1.88;;;18.40;79.70;;;;;;5032638;28;20057;-54
2022/09/16 15:00:32;;;;;;;6.07;1.92;;;18.40;80.10;;;;;;5030850;28;20021;-57
2022/09/16 15:03:35;;;;;;;6.05;2.60;;;18.90;79.80;;;;;;5032581;28;20052;-56
2022/09/16 15:06:26;;;;;;;3.90;1.98;;;19.10;79.70;;;;;;5028069;28;20102;-61